Perry, Utah
Current Conditions -  °F | °C
As of 3:53 AM on Wednesday 26 Nov 2014 (Local Time) from KOGD Reporting Station
Clear Clear  
Wind Chill: 38°   Ceiling: Unl
Heat Index: 41°   Visibility: 10mi
Dew Point: 32°   Wind: 5mph
Humidity: 70%   Direction: 170°S
Pressure: 30.33"   Gusts: NA
Location:  41.4833°N, 112.095°W
Report Text: KOGD 261053Z AUTO 17004KT 10SM CLR 05/00 A3033 RMK AO2 SLP263 T00500000 TSNO
Loading
Personal Weather Stations






























Interactive Weather Map New forecast layout! Learn more

10-Day Weather Forecast

Advertisements
Track Severe Weather on mobile